Time;durP1;ratioP1;P1;durP2;ratioP2;P2;SDS_P1;SDS_P2;PMS_P1;PMS_P2;Temp;Humidity;BMP_temperature;BMP_pressure;BME280_temperature;BME280_humidity;BME280_pressure;Samples;Min_cycle;Max_cycle;Signal;HPM_P1;HPM_P2
2022/05/04 00:03:01;;;;;;;;;;;;;;;10.09;100.00;98408.75;10435071;28;19967;-57
2022/05/04 00:08:06;;;;;;;;;;;;;;;10.02;100.00;98407.72;10433025;28;20011;-58
2022/05/04 00:13:08;;;;;;;;;;;;;;;10.01;100.00;98411.41;10437568;28;19939;-55
2022/05/04 00:18:11;;;;;;;;;;;;;;;9.89;100.00;98402.72;10437605;28;20070;-57
2022/05/04 00:23:15;;;;;;;;;;;;;;;9.77;100.00;98399.47;10437186;28;19933;-56
2022/05/04 00:28:18;;;;;;;;;;;;;;;9.65;100.00;98404.22;10437580;28;20027;-57
2022/05/04 00:33:21;;;;;;;;;;;;;;;9.48;100.00;98411.31;10417989;28;20027;-57
2022/05/04 00:38:25;;;;;;;;;;;;;;;9.43;100.00;98415.47;10435016;28;19939;-58
2022/05/04 00:43:28;;;;;;;;;;;;;;;9.24;100.00;98426.22;10432039;28;19940;-57
2022/05/04 00:48:31;;;;;;;;;;;;;;;9.16;100.00;98420.75;10436104;28;19932;-55
2022/05/04 00:53:35;;;;;;;;;;;;;;;8.97;100.00;98429.81;10436947;28;19932;-57
2022/05/04 00:58:57;;;;;;;;;;;;;;;8.98;100.00;98422.59;10436766;28;19939;-58
2022/05/04 01:04:01;;;;;;;;;;;;;;;8.98;100.00;98420.75;10436484;28;19933;-57
2022/05/04 01:09:05;;;;;;;;;;;;;;;8.95;100.00;98423.72;10435859;28;20055;-56
2022/05/04 01:14:08;;;;;;;;;;;;;;;8.87;100.00;98429.88;10438607;28;19939;-56
2022/05/04 01:19:11;;;;;;;;;;;;;;;8.83;100.00;98427.59;10439564;28;20023;-58
2022/05/04 01:24:16;;;;;;;;;;;;;;;8.70;100.00;98414.53;10443178;28;19939;-60
2022/05/04 01:29:18;;;;;;;;;;;;;;;8.67;100.00;98422.91;10424236;28;20039;-59
2022/05/04 01:34:26;;;;;;;;;;;;;;;8.68;100.00;98432.66;10443465;28;19986;-59
2022/05/04 01:39:30;;;;;;;;;;;;;;;8.65;100.00;98425.75;10436939;28;19928;-59
2022/05/04 01:44:34;;;;;;;;;;;;;;;8.63;100.00;98433.97;10442734;28;20887;-60
2022/05/04 01:49:37;;;;;;;;;;;;;;;8.60;100.00;98433.38;10440089;28;20011;-58
2022/05/04 01:54:41;;;;;;;;;;;;;;;8.44;100.00;98431.31;10437534;28;20070;-59
2022/05/04 01:59:44;;;;;;;;;;;;;;;8.31;100.00;98428.97;10441339;28;19943;-59
2022/05/04 02:04:48;;;;;;;;;;;;;;;8.23;100.00;98424.31;10442224;28;19939;-59
2022/05/04 02:09:53;;;;;;;;;;;;;;;8.07;100.00;98424.94;10424101;28;20012;-59
2022/05/04 02:14:56;;;;;;;;;;;;;;;8.05;100.00;98432.28;10442063;28;19979;-59
2022/05/04 02:19:59;;;;;;;;;;;;;;;8.03;100.00;98431.56;10441186;28;19943;-60
2022/05/04 02:25:03;;;;;;;;;;;;;;;7.95;100.00;98432.28;10419735;28;19928;-58
2022/05/04 02:30:07;;;;;;;;;;;;;;;7.93;100.00;98436.97;10435679;28;19987;-60
2022/05/04 02:40:32;;;;;;;;;;;;;;;7.82;100.00;98434.47;10441037;28;20061;-58
2022/05/04 02:45:35;;;;;;;;;;;;;;;7.81;100.00;98432.75;10419356;28;19933;-58
2022/05/04 02:50:38;;;;;;;;;;;;;;;7.80;100.00;98428.38;10434258;28;19932;-59
2022/05/04 02:55:42;;;;;;;;;;;;;;;7.82;100.00;98421.03;10438228;28;19932;-58
2022/05/04 03:00:45;;;;;;;;;;;;;;;7.87;100.00;98421.44;10437787;28;19937;-57
2022/05/04 03:05:48;;;;;;;;;;;;;;;7.85;100.00;98420.75;10414410;28;19933;-60
2022/05/04 03:16:12;;;;;;;;;;;;;;;7.72;100.00;98416.53;10436713;28;19933;-58
2022/05/04 03:21:15;;;;;;;;;;;;;;;7.62;100.00;98414.84;10433093;28;19941;-58
2022/05/04 03:26:19;;;;;;;;;;;;;;;7.55;100.00;98411.91;10425383;28;19936;-60
2022/05/04 03:31:23;;;;;;;;;;;;;;;7.50;100.00;98411.47;10433389;28;19939;-57
2022/05/04 03:36:26;;;;;;;;;;;;;;;7.45;100.00;98411.06;10433416;28;20328;-58
2022/05/04 03:41:31;;;;;;;;;;;;;;;7.43;100.00;98407.66;10434377;28;19939;-59
2022/05/04 03:46:42;;;;;;;;;;;;;;;7.44;100.00;98422.78;10435429;28;19939;-58
2022/05/04 03:51:45;;;;;;;;;;;;;;;7.29;100.00;98428.53;10417534;28;20125;-55
2022/05/04 03:56:50;;;;;;;;;;;;;;;7.25;100.00;98427.97;10434658;28;20320;-59
2022/05/04 04:01:53;;;;;;;;;;;;;;;7.27;100.00;98416.28;10438564;28;19939;-58
2022/05/04 04:06:56;;;;;;;;;;;;;;;7.25;100.00;98425.31;10435794;28;20373;-56
2022/05/04 04:12:01;;;;;;;;;;;;;;;7.26;100.00;98434.16;10436075;28;19933;-58
2022/05/04 04:17:05;;;;;;;;;;;;;;;7.23;100.00;98431.78;10439753;28;20672;-59
2022/05/04 04:22:08;;;;;;;;;;;;;;;7.29;100.00;98449.16;10439276;28;20442;-56
2022/05/04 04:27:12;;;;;;;;;;;;;;;7.37;100.00;98452.78;10414286;28;19940;-56
2022/05/04 04:32:15;;;;;;;;;;;;;;;7.37;100.00;98460.84;10417224;28;19933;-58
2022/05/04 04:37:18;;;;;;;;;;;;;;;7.32;100.00;98471.16;10431953;28;20024;-55
2022/05/04 04:42:22;;;;;;;;;;;;;;;7.28;100.00;98471.56;10434609;28;20456;-54
2022/05/04 04:47:26;;;;;;;;;;;;;;;7.29;100.00;98475.94;10433084;28;20961;-55
2022/05/04 04:52:29;;;;;;;;;;;;;;;7.41;100.00;98466.75;10438841;28;20951;-56
2022/05/04 04:57:34;;;;;;;;;;;;;;;7.54;100.00;98459.28;10442938;28;20058;-60
2022/05/04 05:02:37;;;;;;;;;;;;;;;7.64;100.00;98453.94;10443695;28;20035;-60
2022/05/04 05:07:40;;;;;;;;;;;;;;;7.78;100.00;98454.50;10441625;28;20424;-62
2022/05/04 05:12:44;;;;;;;;;;;;;;;7.88;100.00;98455.31;10441536;28;20022;-55
2022/05/04 05:17:47;;;;;;;;;;;;;;;7.99;100.00;98447.13;10440547;28;20045;-56
2022/05/04 05:22:50;;;;;;;;;;;;;;;8.07;100.00;98446.41;10436970;28;20016;-59
2022/05/04 05:27:55;;;;;;;;;;;;;;;8.17;100.00;98447.22;10422747;28;20424;-57
2022/05/04 05:32:57;;;;;;;;;;;;;;;8.30;100.00;98444.19;10439728;28;19932;-59
2022/05/04 05:38:00;;;;;;;;;;;;;;;8.40;100.00;98451.41;10440103;28;19987;-64
2022/05/04 05:43:04;;;;;;;;;;;;;;;8.46;100.00;98454.34;10439918;28;19971;-57
2022/05/04 05:48:08;;;;;;;;;;;;;;;8.61;100.00;98459.25;10437896;28;20027;-57
2022/05/04 05:53:10;;;;;;;;;;;;;;;8.68;100.00;98462.19;10439121;28;20094;-57
2022/05/04 05:58:14;;;;;;;;;;;;;;;8.77;100.00;98459.47;10436896;28;19933;-58
2022/05/04 06:03:18;;;;;;;;;;;;;;;8.90;100.00;98469.03;10420106;28;20087;-57
2022/05/04 06:08:20;;;;;;;;;;;;;;;8.79;100.00;98478.13;10443533;28;20008;-60
2022/05/04 06:13:25;;;;;;;;;;;;;;;8.90;100.00;98477.09;10438176;28;20015;-60
2022/05/04 06:18:27;;;;;;;;;;;;;;;8.98;100.00;98468.28;10419317;28;19992;-59
2022/05/04 06:23:30;;;;;;;;;;;;;;;9.04;100.00;98462.28;10446497;28;19979;-58
2022/05/04 06:28:34;;;;;;;;;;;;;;;9.14;100.00;98460.38;10444868;28;19964;-57
2022/05/04 06:38:57;;;;;;;;;;;;;;;9.67;100.00;98469.47;10424255;28;20045;-55
2022/05/04 06:44:02;;;;;;;;;;;;;;;9.89;100.00;98469.16;10441333;28;20046;-61
2022/05/04 06:49:05;;;;;;;;;;;;;;;10.11;100.00;98471.34;10440248;28;19937;-57
2022/05/04 06:54:08;;;;;;;;;;;;;;;10.33;100.00;98474.53;10421408;28;19925;-60
2022/05/04 06:59:28;;;;;;;;;;;;;;;10.73;100.00;98465.03;10436640;28;19931;-60
2022/05/04 07:04:56;;;;;;;;;;;;;;;10.87;100.00;98470.81;10435963;28;19993;-58
2022/05/04 07:10:03;;;;;;;;;;;;;;;10.93;100.00;98475.53;10448090;28;20339;-59
2022/05/04 07:15:08;;;;;;;;;;;;;;;11.05;100.00;98471.56;10447874;28;19925;-59
2022/05/04 07:20:12;;;;;;;;;;;;;;;11.21;100.00;98468.06;10446715;28;19925;-59
2022/05/04 07:25:15;;;;;;;;;;;;;;;11.37;100.00;98467.25;10446609;28;19955;-54
2022/05/04 07:30:19;;;;;;;;;;;;;;;11.56;100.00;98470.66;10454792;28;19968;-54
2022/05/04 07:35:22;;;;;;;;;;;;;;;11.67;100.00;98483.84;10448236;28;20453;-58
2022/05/04 07:45:48;;;;;;;;;;;;;;;11.89;100.00;98481.50;10440327;28;20429;-58
2022/05/04 07:50:51;;;;;;;;;;;;;;;12.02;100.00;98470.19;10437538;28;19932;-57
2022/05/04 07:55:54;;;;;;;;;;;;;;;12.13;100.00;98469.84;10440717;28;19925;-60
2022/05/04 08:06:18;;;;;;;;;;;;;;;12.35;100.00;98486.38;10435804;28;19933;-59
2022/05/04 08:11:21;;;;;;;;;;;;;;;12.63;100.00;98473.34;10437375;28;19964;-59
2022/05/04 08:16:25;;;;;;;;;;;;;;;12.98;100.00;98464.91;10433772;28;19943;-58
2022/05/04 08:21:28;;;;;;;;;;;;;;;13.33;100.00;98467.28;10437497;28;19932;-61
2022/05/04 08:26:31;;;;;;;;;;;;;;;13.63;100.00;98462.91;10444264;28;21175;-59
2022/05/04 08:31:36;;;;;;;;;;;;;;;13.85;100.00;98466.63;10426100;28;20067;-61
2022/05/04 08:36:39;;;;;;;;;;;;;;;14.07;100.00;98464.06;10443451;28;20078;-61
2022/05/04 08:41:42;;;;;;;;;;;;;;;14.21;100.00;98459.72;10443637;28;20060;-60
2022/05/04 08:46:46;;;;;;;;;;;;;;;14.23;100.00;98454.94;10444369;28;19990;-61
2022/05/04 08:51:50;;;;;;;;;;;;;;;14.44;100.00;98454.22;10440023;28;19932;-61
2022/05/04 08:56:53;;;;;;;;;;;;;;;14.66;100.00;98448.06;10443761;28;19994;-61
2022/05/04 09:01:57;;;;;;;;;;;;;;;14.84;100.00;98440.41;10443171;28;19940;-61
2022/05/04 09:07:01;;;;;;;;;;;;;;;15.02;100.00;98445.44;10423778;28;19947;-59
2022/05/04 09:12:05;;;;;;;;;;;;;;;15.26;100.00;98446.16;10424163;28;20067;-61
2022/05/04 09:17:11;;;;;;;;;;;;;;;15.45;100.00;98443.88;10442555;28;20400;-62
2022/05/04 09:22:18;;;;;;;;;;;;;;;15.52;100.00;98444.78;10440567;28;19968;-61
2022/05/04 09:27:29;;;;;;;;;;;;;;;15.82;100.00;98436.47;10442096;28;19939;-63
2022/05/04 09:32:33;;;;;;;;;;;;;;;15.85;100.00;98431.56;10423759;28;19932;-62
2022/05/04 09:48:27;;;;;;;;;;;;;;;16.51;100.00;98421.38;10440916;28;20019;-59
2022/05/04 09:53:30;;;;;;;;;;;;;;;16.69;100.00;98412.69;10448410;28;20396;-58
2022/05/04 09:58:33;;;;;;;;;;;;;;;16.74;95.54;98414.81;10449789;28;19975;-57
2022/05/04 10:03:38;;;;;;;;;;;;;;;16.67;97.32;98408.47;10447715;28;20035;-58
2022/05/04 10:08:40;;;;;;;;;;;;;;;16.87;100.00;98409.44;10432228;28;20397;-59
2022/05/04 10:13:44;;;;;;;;;;;;;;;16.91;100.00;98404.44;10449468;28;19936;-59
2022/05/04 10:18:49;;;;;;;;;;;;;;;17.18;89.71;98402.66;10444952;28;20370;-58
2022/05/04 10:23:55;;;;;;;;;;;;;;;17.32;87.61;98394.53;10372534;28;19952;-57
2022/05/04 10:34:20;;;;;;;;;;;;;;;17.47;76.73;98386.19;10385192;28;19933;-58
2022/05/04 10:39:23;;;;;;;;;;;;;;;17.54;84.05;98374.25;10388195;28;19968;-59
2022/05/04 10:44:41;;;;;;;;;;;;;;;17.65;90.28;98371.97;10390039;28;19939;-60
2022/05/04 10:49:45;;;;;;;;;;;;;;;17.86;75.26;98368.22;10385506;28;20083;-61
2022/05/04 10:54:48;;;;;;;;;;;;;;;17.88;72.90;98355.19;10373466;28;20437;-60
2022/05/04 11:00:02;;;;;;;;;;;;;;;18.06;76.94;98361.94;10391263;28;20067;-59
2022/05/04 11:05:14;;;;;;;;;;;;;;;18.13;74.02;98357.28;10388330;28;19933;-59
2022/05/04 11:10:17;;;;;;;;;;;;;;;18.20;69.74;98346.38;10387868;28;19933;-57
2022/05/04 11:15:20;;;;;;;;;;;;;;;18.47;74.11;98341.69;10385912;28;20694;-59
2022/05/04 11:20:24;;;;;;;;;;;;;;;18.47;67.72;98348.00;10389588;28;20359;-59
2022/05/04 11:25:27;;;;;;;;;;;;;;;18.62;69.11;98334.09;10396456;28;19933;-58
2022/05/04 11:30:32;;;;;;;;;;;;;;;18.74;71.72;98334.28;10378482;28;20677;-59
2022/05/04 11:35:36;;;;;;;;;;;;;;;18.97;69.71;98319.28;10395579;28;20464;-58
2022/05/04 11:40:44;;;;;;;;;;;;;;;18.98;67.15;98307.31;10376273;28;20633;-64
2022/05/04 11:45:49;;;;;;;;;;;;;;;19.19;67.85;98305.28;10395454;28;19933;-59
2022/05/04 11:50:53;;;;;;;;;;;;;;;19.27;65.22;98307.75;10395727;28;20048;-58
2022/05/04 11:55:57;;;;;;;;;;;;;;;19.36;64.74;98300.13;10394398;28;19933;-57
2022/05/04 12:01:01;;;;;;;;;;;;;;;19.49;64.47;98288.25;10396561;28;20417;-59
2022/05/04 12:06:09;;;;;;;;;;;;;;;19.58;64.29;98292.38;10395916;28;19976;-59
2022/05/04 12:11:12;;;;;;;;;;;;;;;19.58;64.03;98281.44;10378510;28;21495;-59
2022/05/04 12:16:14;;;;;;;;;;;;;;;19.87;63.99;98284.59;10394249;28;20071;-59
2022/05/04 12:21:20;;;;;;;;;;;;;;;19.99;61.20;98271.84;10416383;28;19939;-58
2022/05/04 12:26:24;;;;;;;;;;;;;;;20.22;64.65;98264.88;10436374;28;20019;-56
2022/05/04 12:36:58;;;;;;;;;;;;;;;20.55;60.53;98249.13;10398429;28;20066;-59
2022/05/04 12:42:03;;;;;;;;;;;;;;;20.75;61.23;98248.88;10437096;28;19933;-56
2022/05/04 12:47:06;;;;;;;;;;;;;;;21.01;59.35;98255.88;10436550;28;19963;-59
2022/05/04 12:52:10;;;;;;;;;;;;;;;20.63;55.10;98255.13;10435612;28;20692;-58
2022/05/04 12:57:14;;;;;;;;;;;;;;;20.32;57.58;98254.22;10432620;28;19932;-58
2022/05/04 13:02:16;;;;;;;;;;;;;;;20.26;59.54;98243.34;10436792;28;19982;-59
2022/05/04 13:07:21;;;;;;;;;;;;;;;20.24;61.53;98242.75;10436500;28;19932;-59
2022/05/04 13:12:24;;;;;;;;;;;;;;;20.21;61.11;98233.09;10443298;28;19938;-58
2022/05/04 13:17:27;;;;;;;;;;;;;;;20.35;62.55;98232.94;10421737;28;20008;-59
2022/05/04 13:22:32;;;;;;;;;;;;;;;20.36;62.47;98242.81;10424605;28;19932;-57
2022/05/04 13:27:34;;;;;;;;;;;;;;;20.52;62.27;98238.63;10422448;28;20296;-60
2022/05/04 13:32:37;;;;;;;;;;;;;;;20.46;61.55;98232.16;10437953;28;20405;-59
2022/05/04 13:37:42;;;;;;;;;;;;;;;20.44;65.82;98223.34;10419135;28;19993;-60
2022/05/04 13:42:45;;;;;;;;;;;;;;;20.61;66.11;98221.66;10437941;28;19976;-59
2022/05/04 13:47:48;;;;;;;;;;;;;;;20.59;67.27;98215.59;10439135;28;20035;-56
2022/05/04 13:58:14;;;;;;;;;;;;;;;20.49;64.09;98209.81;10436607;28;20428;-60
2022/05/04 14:03:20;;;;;;;;;;;;;;;20.44;64.80;98215.13;10436765;28;19932;-60
2022/05/04 14:08:24;;;;;;;;;;;;;;;20.37;71.51;98217.13;10437655;28;19933;-58
2022/05/04 14:13:28;;;;;;;;;;;;;;;20.47;75.05;98220.16;10439145;28;20304;-58
2022/05/04 14:18:32;;;;;;;;;;;;;;;20.58;75.72;98213.91;10418495;28;20032;-59
2022/05/04 14:23:38;;;;;;;;;;;;;;;20.74;90.32;98193.28;10380809;28;20032;-60
2022/05/04 14:28:41;;;;;;;;;;;;;;;20.83;72.74;98193.78;10377790;28;19933;-59
2022/05/04 14:33:48;;;;;;;;;;;;;;;21.11;72.82;98189.56;10384922;28;20129;-61
2022/05/04 14:38:52;;;;;;;;;;;;;;;21.39;78.26;98185.31;10368608;28;19972;-61
2022/05/04 14:43:57;;;;;;;;;;;;;;;21.35;78.01;98195.06;10384653;28;20506;-61
2022/05/04 14:49:00;;;;;;;;;;;;;;;21.08;77.27;98209.22;10382811;28;20016;-61
2022/05/04 14:54:04;;;;;;;;;;;;;;;21.04;73.45;98211.59;10380456;28;19987;-59
2022/05/04 14:59:08;;;;;;;;;;;;;;;21.23;81.51;98203.28;10382088;28;19937;-63
2022/05/04 15:09:35;;;;;;;;;;;;;;;22.78;65.74;98184.69;10390555;28;19933;-62
2022/05/04 15:14:39;;;;;;;;;;;;;;;23.26;64.10;98179.75;10388647;28;20031;-62
2022/05/04 15:19:42;;;;;;;;;;;;;;;23.78;58.85;98178.59;10382310;28;20669;-63
2022/05/04 15:24:47;;;;;;;;;;;;;;;24.09;54.98;98187.31;10389086;28;19979;-62
2022/05/04 15:29:50;;;;;;;;;;;;;;;24.48;53.58;98178.13;10388580;28;19933;-63
2022/05/04 15:34:52;;;;;;;;;;;;;;;24.99;52.84;98182.53;10390759;28;20393;-63
2022/05/04 15:40:02;;;;;;;;;;;;;;;24.80;54.01;98173.81;10384419;28;20099;-63
2022/05/04 15:45:06;;;;;;;;;;;;;;;24.54;53.35;98182.59;10386756;28;19954;-63
2022/05/04 15:50:09;;;;;;;;;;;;;;;24.25;54.14;98177.31;10386926;28;21613;-62
2022/05/04 15:55:14;;;;;;;;;;;;;;;24.08;55.95;98185.66;10385910;28;20449;-61
2022/05/04 16:00:16;;;;;;;;;;;;;;;23.98;57.32;98186.34;10391374;28;20034;-60
2022/05/04 16:05:20;;;;;;;;;;;;;;;23.47;55.00;98191.06;10390374;28;20393;-59
2022/05/04 16:10:24;;;;;;;;;;;;;;;23.15;55.94;98176.00;10388192;28;20689;-60
2022/05/04 16:15:28;;;;;;;;;;;;;;;22.82;55.45;98174.03;10384141;28;21138;-58
2022/05/04 16:25:59;;;;;;;;;;;;;;;22.39;56.95;98178.97;10436547;28;20027;-62
2022/05/04 16:31:07;;;;;;;;;;;;;;;22.10;57.70;98177.03;10442675;28;20086;-60
2022/05/04 16:36:10;;;;;;;;;;;;;;;21.81;58.33;98179.72;10441882;28;21037;-59
2022/05/04 16:41:14;;;;;;;;;;;;;;;21.32;58.81;98199.13;10456789;22;19939;-59
2022/05/04 16:46:17;;;;;;;;;;;;;;;20.56;59.49;98213.28;10502496;28;19994;-62
2022/05/04 16:51:20;;;;;;;;;;;;;;;20.20;60.53;98217.75;10504357;28;19932;-62
2022/05/04 16:56:25;;;;;;;;;;;;;;;19.62;62.56;98214.34;10477290;28;19933;-62
2022/05/04 17:01:28;;;;;;;;;;;;;;;19.34;66.82;98217.56;10476304;28;19976;-62
2022/05/04 17:06:31;;;;;;;;;;;;;;;19.13;74.66;98230.53;10473472;28;19939;-59
2022/05/04 17:11:36;;;;;;;;;;;;;;;18.62;91.97;98235.88;10475644;28;19932;-62
2022/05/04 17:16:39;;;;;;;;;;;;;;;18.22;97.25;98240.66;10473245;28;20538;-62
2022/05/04 17:21:42;;;;;;;;;;;;;;;17.66;100.00;98259.22;10475308;28;20039;-60
2022/05/04 17:26:47;;;;;;;;;;;;;;;16.96;100.00;98259.63;10473358;28;19972;-62
2022/05/04 17:36:42;;;;;;;;;;;;;;;15.82;100.00;98279.78;10473339;28;20041;-62
2022/05/04 17:37:13;;;;;;;;;;;;;;;15.32;100.00;98287.13;10451715;28;20039;-63
2022/05/04 17:42:18;;;;;;;;;;;;;;;15.25;100.00;98278.91;10475611;28;19950;-60
2022/05/04 17:47:21;;;;;;;;;;;;;;;14.93;100.00;98295.50;10472913;28;20023;-63
2022/05/04 17:52:25;;;;;;;;;;;;;;;14.84;100.00;98301.25;10471227;28;19932;-62
2022/05/04 17:57:29;;;;;;;;;;;;;;;14.69;100.00;98307.56;10485158;28;20035;-62
2022/05/04 18:07:53;;;;;;;;;;;;;;;14.62;100.00;98331.03;10469683;28;20093;-64
2022/05/04 18:12:58;;;;;;;;;;;;;;;14.65;100.00;98336.03;10469465;28;20043;-62
2022/05/04 18:18:01;;;;;;;;;;;;;;;14.71;100.00;98339.91;10484995;28;20044;-62
2022/05/04 18:23:05;;;;;;;;;;;;;;;14.57;100.00;98338.88;10470821;28;19928;-64
2022/05/04 18:28:10;;;;;;;;;;;;;;;14.37;100.00;98339.47;10469408;28;19995;-62
2022/05/04 18:33:13;;;;;;;;;;;;;;;14.15;100.00;98347.50;10472104;28;19994;-62
2022/05/04 18:38:16;;;;;;;;;;;;;;;14.06;100.00;98353.19;10464659;28;20517;-61
2022/05/04 18:43:21;;;;;;;;;;;;;;;13.89;100.00;98363.34;10466985;28;20141;-60
2022/05/04 18:48:24;;;;;;;;;;;;;;;13.65;100.00;98373.38;10467066;28;19933;-62
2022/05/04 18:53:27;;;;;;;;;;;;;;;13.52;100.00;98369.41;10470081;28;20359;-58
2022/05/04 18:58:31;;;;;;;;;;;;;;;13.39;100.00;98385.38;10468343;28;19932;-59
2022/05/04 19:03:34;;;;;;;;;;;;;;;13.42;100.00;98385.06;10468763;28;20463;-60
2022/05/04 19:08:37;;;;;;;;;;;;;;;13.37;100.00;98392.84;10468170;28;19974;-57
2022/05/04 19:13:41;;;;;;;;;;;;;;;13.22;100.00;98390.94;10471699;28;19972;-60
2022/05/04 19:18:46;;;;;;;;;;;;;;;13.07;100.00;98398.13;10471778;28;19978;-61
2022/05/04 19:23:49;;;;;;;;;;;;;;;13.04;100.00;98407.44;10469000;28;19924;-64
2022/05/04 19:28:53;;;;;;;;;;;;;;;13.18;100.00;98415.78;10483224;28;20463;-62
2022/05/04 19:33:56;;;;;;;;;;;;;;;13.24;100.00;98415.91;10467913;28;19959;-58
2022/05/04 19:38:59;;;;;;;;;;;;;;;13.08;100.00;98413.31;10466972;28;20070;-60
2022/05/04 19:44:03;;;;;;;;;;;;;;;13.05;100.00;98413.66;10434840;28;19939;-61
2022/05/04 19:49:06;;;;;;;;;;;;;;;12.85;100.00;98413.25;10416935;28;20035;-62
2022/05/04 19:54:09;;;;;;;;;;;;;;;12.88;100.00;98415.63;10416315;28;19983;-63
2022/05/04 19:59:13;;;;;;;;;;;;;;;12.76;100.00;98407.03;10414392;28;19933;-62
2022/05/04 20:04:16;;;;;;;;;;;;;;;12.69;100.00;98416.88;10401685;28;19940;-59
2022/05/04 20:09:19;;;;;;;;;;;;;;;12.69;100.00;98417.75;10417203;28;20017;-58
2022/05/04 20:14:23;;;;;;;;;;;;;;;12.76;100.00;98423.25;10402627;28;20439;-60
2022/05/04 20:19:26;;;;;;;;;;;;;;;12.76;100.00;98424.13;10424499;28;20138;-59
2022/05/04 20:24:30;;;;;;;;;;;;;;;12.84;100.00;98425.09;10427567;28;20461;-58
2022/05/04 20:29:54;;;;;;;;;;;;;;;12.84;100.00;98417.84;10427478;28;19972;-61
2022/05/04 20:35:01;;;;;;;;;;;;;;;12.88;100.00;98413.75;10424906;28;21275;-62
2022/05/04 20:40:04;;;;;;;;;;;;;;;12.87;100.00;98409.38;10425982;28;20615;-59
2022/05/04 20:45:09;;;;;;;;;;;;;;;12.87;100.00;98406.69;10468579;28;19936;-59
2022/05/04 20:55:33;;;;;;;;;;;;;;;12.73;100.00;98399.31;10473086;28;20031;-58
2022/05/04 21:00:37;;;;;;;;;;;;;;;12.62;100.00;98401.38;10471535;28;19941;-59
2022/05/04 21:05:40;;;;;;;;;;;;;;;12.67;100.00;98413.50;10471865;28;19939;-57
2022/05/04 21:10:43;;;;;;;;;;;;;;;12.61;100.00;98424.00;10471984;28;19937;-59
2022/05/04 21:15:47;;;;;;;;;;;;;;;12.57;100.00;98435.34;10474053;28;20304;-59
2022/05/04 21:20:50;;;;;;;;;;;;;;;12.52;100.00;98425.06;10475840;28;19932;-56
2022/05/04 21:25:53;;;;;;;;;;;;;;;12.41;100.00;98420.84;10471551;28;20381;-59
2022/05/04 21:30:57;;;;;;;;;;;;;;;12.40;100.00;98424.56;10471426;28;19932;-59
2022/05/04 21:36:01;;;;;;;;;;;;;;;12.38;100.00;98423.91;10470530;28;19940;-59
2022/05/04 21:41:04;;;;;;;;;;;;;;;12.37;100.00;98424.09;10470516;28;19939;-59
2022/05/04 21:46:08;;;;;;;;;;;;;;;12.37;100.00;98429.47;10468226;28;19991;-59
2022/05/04 21:51:11;;;;;;;;;;;;;;;12.35;100.00;98420.69;10472936;28;19936;-58
2022/05/04 21:56:14;;;;;;;;;;;;;;;12.35;100.00;98421.53;10470708;28;19935;-58
2022/05/04 22:01:18;;;;;;;;;;;;;;;12.34;100.00;98417.19;10470218;28;21238;-59
2022/05/04 22:06:21;;;;;;;;;;;;;;;12.26;100.00;98422.56;10469859;28;20019;-58
2022/05/04 22:16:46;;;;;;;;;;;;;;;12.24;100.00;98430.84;10467372;28;19933;-56
2022/05/04 22:21:48;;;;;;;;;;;;;;;12.21;100.00;98435.78;10465649;28;19939;-59
2022/05/04 22:26:51;;;;;;;;;;;;;;;12.16;100.00;98444.38;10469411;28;20303;-58
2022/05/04 22:31:56;;;;;;;;;;;;;;;12.13;100.00;98445.56;10470022;28;20066;-59
2022/05/04 22:36:59;;;;;;;;;;;;;;;12.11;100.00;98436.78;10464570;28;19939;-58
2022/05/04 22:42:02;;;;;;;;;;;;;;;12.11;100.00;98446.75;10492869;22;20509;-61
2022/05/04 22:47:06;;;;;;;;;;;;;;;12.10;100.00;98439.66;10547456;28;19996;-61
2022/05/04 22:52:09;;;;;;;;;;;;;;;12.05;100.00;98437.47;10550179;28;19931;-60
2022/05/04 22:57:12;;;;;;;;;;;;;;;12.02;100.00;98438.66;10551308;28;20084;-60
2022/05/04 23:02:16;;;;;;;;;;;;;;;11.99;100.00;98455.19;10533714;28;19967;-59
2022/05/04 23:07:20;;;;;;;;;;;;;;;11.94;100.00;98457.50;10551248;28;20022;-61
2022/05/04 23:12:22;;;;;;;;;;;;;;;12.00;100.00;98462.28;10551064;28;20155;-61
2022/05/04 23:17:27;;;;;;;;;;;;;;;12.00;100.00;98478.47;10550875;28;20020;-61
2022/05/04 23:22:29;;;;;;;;;;;;;;;12.01;100.00;98474.78;10549786;28;19932;-61
2022/05/04 23:27:33;;;;;;;;;;;;;;;12.00;100.00;98466.81;10548018;28;19938;-61
2022/05/04 23:32:37;;;;;;;;;;;;;;;12.00;100.00;98478.47;10550278;28;20083;-61
2022/05/04 23:37:40;;;;;;;;;;;;;;;12.00;100.00;98466.81;10551096;27;20056;-61
2022/05/04 23:42:42;;;;;;;;;;;;;;;11.99;100.00;98457.91;10554933;27;20656;-61
2022/05/04 23:47:48;;;;;;;;;;;;;;;11.97;100.00;98450.94;10547812;27;19957;-61
2022/05/04 23:52:51;;;;;;;;;;;;;;;11.88;100.00;98455.50;10565263;27;20458;-61
2022/05/04 23:57:54;;;;;;;;;;;;;;;11.83;100.00;98466.81;10563683;27;20080;-59
